Time;durP1;ratioP1;P1;durP2;ratioP2;P2;SDS_P1;SDS_P2;PMS_P1;PMS_P2;Temp;Humidity;BMP_temperature;BMP_pressure;BME280_temperature;BME280_humidity;BME280_pressure;Samples;Min_cycle;Max_cycle;Signal;HPM_P1;HPM_P2
2022/05/15 00:01:24;;;;;;;13.30;3.22;;;;;;;16.81;55.44;94118.13;5064493;28;20078;-78
2022/05/15 00:03:50;;;;;;;5.25;2.83;;;;;;;16.76;55.09;94121.84;5064741;28;20021;-77
2022/05/15 00:06:15;;;;;;;6.63;3.63;;;;;;;16.68;55.62;94127.38;5046596;28;20197;-78
2022/05/15 00:08:41;;;;;;;5.10;3.00;;;;;;;16.61;55.19;94118.00;5064111;28;20108;-77
2022/05/15 00:11:10;;;;;;;8.07;3.63;;;;;;;16.60;54.80;94123.72;5064218;28;20028;-77
2022/05/15 00:13:37;;;;;;;3.42;2.40;;;;;;;16.56;54.30;94115.53;5064138;28;20033;-77
2022/05/15 00:16:03;;;;;;;11.75;4.13;;;;;;;16.51;55.08;94118.50;5063987;28;20075;-73
2022/05/15 00:18:29;;;;;;;8.73;3.95;;;;;;;16.41;55.10;94113.63;5065742;28;20025;-94
2022/05/15 00:20:55;;;;;;;6.43;2.80;;;;;;;16.31;55.27;94108.72;5073119;28;20055;-94
2022/05/15 00:23:22;;;;;;;7.75;3.08;;;;;;;16.17;55.45;94119.88;5071440;28;20025;-92
2022/05/15 00:25:48;;;;;;;13.23;3.58;;;;;;;16.09;55.84;94116.19;5051634;28;20104;-92
2022/05/15 00:28:14;;;;;;;14.13;2.97;;;;;;;16.01;56.15;94109.06;5064739;28;20025;-92
2022/05/15 00:30:39;;;;;;;8.18;2.80;;;;;;;16.00;56.29;94115.56;5065517;28;20025;-92
2022/05/15 00:33:05;;;;;;;9.85;3.28;;;;;;;16.01;56.16;94114.44;5065216;28;20051;-92
2022/05/15 00:35:33;;;;;;;9.70;3.22;;;;;;;16.02;55.71;94116.00;5047446;28;20028;-92
2022/05/15 00:37:59;;;;;;;5.68;3.15;;;;;;;16.01;55.33;94111.75;5065829;28;20087;-91
2022/05/15 00:40:24;;;;;;;7.10;2.60;;;;;;;16.04;55.42;94111.06;5066084;28;20027;-92
2022/05/15 00:42:50;;;;;;;5.43;2.88;;;;;;;16.02;55.32;94118.69;5066689;28;20079;-91
2022/05/15 00:45:18;;;;;;;8.32;2.78;;;;;;;15.99;54.86;94114.75;5065790;28;20091;-91
2022/05/15 00:47:43;;;;;;;10.20;2.75;;;;;;;15.99;54.18;94117.44;5065640;28;20039;-92
2022/05/15 00:50:24;;;;;;;8.13;4.30;;;;;;;15.94;53.86;94116.94;5065098;28;20025;-91
2022/05/15 00:52:54;;;;;;;7.82;3.03;;;;;;;15.91;55.43;94117.59;5065575;28;20024;-92
2022/05/15 00:55:52;;;;;;;5.68;3.03;;;;;;;15.90;55.46;94127.56;5066044;28;20029;-92
2022/05/15 00:58:20;;;;;;;6.70;2.97;;;;;;;15.86;55.46;94118.63;5032230;28;20032;-91
2022/05/15 01:00:46;;;;;;;12.77;2.50;;;;;;;15.82;53.78;94115.81;5065455;28;20092;-92
2022/05/15 01:03:17;;;;;;;12.30;2.88;;;;;;;15.82;53.88;94112.34;5064793;28;20016;-92
2022/05/15 01:05:54;;;;;;;5.75;2.70;;;;;;;15.88;53.91;94112.91;5066106;28;20047;-94
2022/05/15 01:08:21;;;;;;;6.25;3.05;;;;;;;15.91;54.07;94109.53;5066039;28;20036;-94
2022/05/15 01:10:53;;;;;;;18.98;2.42;;;;;;;15.90;53.05;94107.97;5067677;28;20016;-94
2022/05/15 01:13:22;;;;;;;8.43;2.38;;;;;;;15.96;52.91;94114.69;5068509;28;20338;-94
2022/05/15 01:15:51;;;;;;;4.82;2.38;;;;;;;15.99;52.66;94116.66;5069082;28;20041;-95
2022/05/15 01:18:30;;;;;;;10.10;2.92;;;;;;;16.05;52.73;94112.63;5069479;28;20092;-95
2022/05/15 01:21:05;;;;;;;6.68;2.42;;;;;;;16.09;51.90;94120.78;5052306;28;20028;-95
2022/05/15 01:26:27;;;;;;;11.50;2.58;;;;;;;16.15;51.73;94111.38;5042566;28;20039;-94
2022/05/15 01:29:02;;;;;;;4.18;1.90;;;;;;;16.11;51.38;94105.88;5066608;28;20025;-94
2022/05/15 01:31:37;;;;;;;7.30;2.90;;;;;;;16.13;52.02;94109.00;5066976;28;20021;-94
2022/05/15 01:34:08;;;;;;;6.00;2.53;;;;;;;16.11;51.56;94102.41;5050046;28;20073;-94
2022/05/15 01:36:41;;;;;;;6.20;2.47;;;;;;;16.14;51.98;94107.91;5068710;28;20032;-94
2022/05/15 01:39:16;;;;;;;6.97;2.60;;;;;;;16.16;52.14;94115.59;5065807;28;20028;-94
2022/05/15 01:41:53;;;;;;;9.98;2.53;;;;;;;16.10;51.92;94114.28;5065843;28;20020;-94
2022/05/15 01:44:21;;;;;;;5.65;2.72;;;;;;;16.16;52.14;94113.72;5065676;28;20040;-94
2022/05/15 01:46:53;;;;;;;6.45;2.35;;;;;;;16.17;51.52;94109.13;5066656;28;20020;-94
2022/05/15 01:49:21;;;;;;;3.78;2.10;;;;;;;16.17;51.57;94114.50;5066409;28;20028;-92
2022/05/15 01:51:52;;;;;;;6.55;2.67;;;;;;;16.17;51.36;94120.66;5068585;28;20032;-94
2022/05/15 01:54:18;;;;;;;8.38;2.42;;;;;;;16.16;51.10;94107.53;5069635;28;20047;-94
2022/05/15 01:56:44;;;;;;;9.60;2.25;;;;;;;16.17;50.48;94104.50;5067738;28;20435;-94
2022/05/15 01:59:09;;;;;;;5.38;2.50;;;;;;;16.19;50.62;94106.88;5067588;28;20028;-94
2022/05/15 02:01:40;;;;;;;4.63;2.13;;;;;;;16.19;50.74;94102.25;5067067;28;20088;-94
2022/05/15 02:04:09;;;;;;;6.10;2.33;;;;;;;16.19;50.31;94106.88;5066366;28;20036;-94
2022/05/15 02:06:35;;;;;;;5.47;2.55;;;;;;;16.15;50.86;94111.38;5066356;28;20021;-95
2022/05/15 02:09:04;;;;;;;3.10;2.05;;;;;;;16.14;50.35;94097.16;5059521;28;20105;-95
2022/05/15 02:11:32;;;;;;;6.47;2.38;;;;;;;16.20;49.85;94101.16;5086083;28;20092;-94
2022/05/15 02:14:01;;;;;;;5.38;2.22;;;;;;;16.23;49.86;94108.53;5085780;28;20021;-94
2022/05/15 02:16:27;;;;;;;3.53;2.33;;;;;;;16.23;50.01;94105.06;5067779;28;20024;-94
2022/05/15 02:18:52;;;;;;;6.10;2.20;;;;;;;16.21;49.95;94104.63;5084677;28;20017;-92
2022/05/15 02:21:18;;;;;;;7.78;2.42;;;;;;;16.22;49.85;94117.72;5066083;28;20025;-92
2022/05/15 02:23:43;;;;;;;3.13;1.80;;;;;;;16.18;50.11;94097.22;5084075;28;20328;-93
2022/05/15 02:26:09;;;;;;;6.78;2.30;;;;;;;16.21;50.39;94110.78;5084103;28;20024;-93
2022/05/15 02:28:36;;;;;;;5.47;2.20;;;;;;;16.20;50.50;94116.47;5065848;28;20029;-92
2022/05/15 02:31:05;;;;;;;4.93;2.22;;;;;;;16.21;50.35;94115.38;5066224;28;20043;-92
2022/05/15 02:33:31;;;;;;;9.85;2.28;;;;;;;16.14;50.73;94110.59;5084123;28;20323;-92
2022/05/15 02:35:58;;;;;;;7.28;2.20;;;;;;;16.17;50.73;94123.34;5084174;28;20021;-93
2022/05/15 02:38:24;;;;;;;4.97;2.35;;;;;;;16.16;50.70;94123.66;5083755;28;20029;-91
2022/05/15 02:40:50;;;;;;;10.45;2.50;;;;;;;16.11;51.30;94123.91;5085999;28;20048;-92
2022/05/15 02:43:15;;;;;;;5.07;2.30;;;;;;;16.08;51.36;94125.41;5070709;28;20025;-93
2022/05/15 02:45:42;;;;;;;5.72;2.45;;;;;;;16.07;51.27;94126.50;5070251;28;20020;-92
2022/05/15 02:51:03;;;;;;;4.55;2.13;;;;;;;16.03;50.82;94114.88;5088305;28;20218;-93
2022/05/15 02:51:05;;;;;;;6.95;2.65;;;;;;;16.09;50.93;94129.63;5087623;28;20376;-93
2022/05/15 02:53:36;;;;;;;6.60;3.03;;;;;;;16.12;51.14;94126.28;5087408;28;20029;-91
2022/05/15 02:56:05;;;;;;;6.07;2.33;;;;;;;16.11;50.49;94130.06;5069622;28;20110;-91
2022/05/15 02:58:30;;;;;;;4.40;2.00;;;;;;;16.09;51.53;94129.63;5087120;28;20016;-92
2022/05/15 03:00:56;;;;;;;5.40;2.08;;;;;;;16.11;50.98;94137.38;5087062;28;20261;-92
2022/05/15 03:03:24;;;;;;;3.83;2.25;;;;;;;16.09;51.10;94139.63;5086744;28;20092;-92
2022/05/15 03:05:50;;;;;;;15.38;3.40;;;;;;;16.05;52.05;94145.66;5086532;28;20101;-90
2022/05/15 03:08:15;;;;;;;5.82;2.92;;;;;;;15.99;52.74;94146.25;5081318;28;20045;-91
2022/05/15 03:10:41;;;;;;;8.55;3.55;;;;;;;15.91;52.55;94149.84;5066496;28;20063;-91
2022/05/15 03:13:06;;;;;;;6.15;3.13;;;;;;;15.89;52.67;94138.66;5066324;28;20040;-91
2022/05/15 03:15:32;;;;;;;7.18;2.95;;;;;;;15.91;52.49;94139.88;5066871;28;20028;-88
2022/05/15 03:17:57;;;;;;;8.55;3.60;;;;;;;15.89;53.43;94138.66;5066522;28;20024;-90
2022/05/15 03:20:27;;;;;;;7.18;2.60;;;;;;;15.86;52.89;94142.03;5048710;28;20067;-91
2022/05/15 03:22:56;;;;;;;5.72;2.40;;;;;;;15.84;52.50;94145.06;5066584;28;20088;-91
2022/05/15 03:25:22;;;;;;;5.72;2.60;;;;;;;15.79;52.79;94140.69;5066386;28;20083;-91
2022/05/15 03:27:47;;;;;;;8.23;2.60;;;;;;;15.79;53.21;94143.38;5066401;28;20036;-91
2022/05/15 03:30:14;;;;;;;10.90;2.67;;;;;;;15.78;53.21;94144.50;5066962;28;20120;-95
2022/05/15 03:32:40;;;;;;;7.60;2.55;;;;;;;15.81;52.79;94151.09;5075860;28;20025;-94
2022/05/15 03:35:08;;;;;;;6.88;2.67;;;;;;;15.82;52.89;94148.06;5075652;28;20036;-95
2022/05/15 03:37:34;;;;;;;9.02;2.50;;;;;;;15.84;53.23;94145.81;5070194;28;20070;-94
2022/05/15 03:39:59;;;;;;;7.32;3.28;;;;;;;15.81;53.59;94151.91;5074074;28;20024;-95
2022/05/15 03:42:25;;;;;;;3.20;2.03;;;;;;;15.84;52.72;94143.13;5070016;28;20362;-95
2022/05/15 03:44:51;;;;;;;5.70;2.33;;;;;;;15.89;52.22;94158.25;5067311;28;20029;-94
2022/05/15 03:47:17;;;;;;;4.35;2.20;;;;;;;15.92;52.26;94148.75;5067171;28;20036;-94
2022/05/15 03:49:43;;;;;;;5.15;2.55;;;;;;;15.96;51.88;94163.06;5066176;28;20223;-93
2022/05/15 03:52:08;;;;;;;13.98;5.05;;;;;;;16.01;52.37;94154.75;5048647;28;20032;-92
2022/05/15 03:54:34;;;;;;;6.40;2.17;;;;;;;16.04;52.28;94151.41;5065817;28;20025;-92
2022/05/15 03:56:59;;;;;;;8.80;2.03;;;;;;;16.09;52.43;94148.47;5065985;28;20021;-94
2022/05/15 03:59:34;;;;;;;6.43;2.08;;;;;;;16.14;52.35;94150.91;5065954;28;20025;-93
2022/05/15 04:02:01;;;;;;;15.15;2.20;;;;;;;16.20;52.94;94151.44;5051779;28;20028;-94
2022/05/15 04:04:30;;;;;;;14.93;2.67;;;;;;;16.18;53.12;94149.13;5068577;28;20017;-93
2022/05/15 04:06:55;;;;;;;10.52;3.28;;;;;;;16.27;53.38;94153.56;5065711;28;20020;-92
2022/05/15 04:09:21;;;;;;;15.77;3.35;;;;;;;16.30;53.19;94159.03;5065442;28;20055;-91
2022/05/15 04:11:47;;;;;;;6.82;3.10;;;;;;;16.33;53.55;94160.28;5065681;28;20025;-92
2022/05/15 04:14:13;;;;;;;8.68;3.55;;;;;;;16.20;54.08;94163.00;5065352;28;20020;-92
2022/05/15 04:16:38;;;;;;;11.90;3.15;;;;;;;16.25;54.31;94172.72;5048143;28;20056;-92
2022/05/15 04:19:05;;;;;;;9.48;4.25;;;;;;;16.13;54.43;94170.06;5065975;28;20021;-91
2022/05/15 04:21:36;;;;;;;5.75;3.50;;;;;;;16.15;54.75;94175.91;5047776;28;20046;-92
2022/05/15 04:24:06;;;;;;;13.25;4.10;;;;;;;16.18;54.62;94173.31;5065300;28;20021;-92
2022/05/15 04:26:32;;;;;;;7.93;3.67;;;;;;;16.19;54.79;94172.19;5065377;28;20017;-92
2022/05/15 04:28:58;;;;;;;13.52;3.65;;;;;;;16.27;55.04;94177.78;5047639;28;20039;-89
2022/05/15 04:31:23;;;;;;;8.18;3.42;;;;;;;16.35;54.37;94168.78;5047561;28;20024;-92
2022/05/15 04:33:49;;;;;;;16.48;3.85;;;;;;;16.44;54.89;94182.84;5047562;28;20280;-92
2022/05/15 04:36:14;;;;;;;6.15;3.47;;;;;;;16.46;54.38;94175.22;5064816;28;20316;-91
2022/05/15 04:38:40;;;;;;;9.23;3.92;;;;;;;16.55;53.72;94173.19;5046859;28;20334;-91
2022/05/15 04:41:06;;;;;;;9.75;3.22;;;;;;;16.66;54.08;94178.84;5069546;28;20369;-95
2022/05/15 04:43:31;;;;;;;10.13;3.38;;;;;;;16.76;53.99;94182.97;5067471;28;20027;-95
2022/05/15 04:45:57;;;;;;;13.48;3.45;;;;;;;16.85;53.89;94170.16;5066555;28;20017;-95
2022/05/15 04:48:22;;;;;;;15.25;4.05;;;;;;;16.95;54.03;94183.09;5065730;28;20020;-94
2022/05/15 04:50:48;;;;;;;7.90;3.78;;;;;;;17.02;54.37;94180.59;5047810;28;20307;-93
2022/05/15 04:53:14;;;;;;;11.25;3.55;;;;;;;16.97;52.84;94183.53;5066827;28;20027;-95
2022/05/15 04:55:39;;;;;;;5.90;3.65;;;;;;;16.98;52.81;94173.56;5067447;28;20025;-96
2022/05/15 04:58:05;;;;;;;12.88;2.80;;;;;;;17.02;52.85;94180.59;5065498;28;20063;-93
2022/05/15 05:00:31;;;;;;;6.68;3.17;;;;;;;17.07;53.26;94181.47;5064582;28;20092;-93
2022/05/15 05:02:57;;;;;;;9.10;3.22;;;;;;;17.11;53.60;94193.91;5064584;28;20024;-94
2022/05/15 05:05:23;;;;;;;11.95;2.95;;;;;;;17.18;53.25;94185.25;5064615;28;20067;-93
2022/05/15 05:07:51;;;;;;;8.50;3.95;;;;;;;17.23;53.76;94177.66;5064495;28;20029;-94
2022/05/15 05:10:20;;;;;;;8.32;4.30;;;;;;;17.25;53.95;94182.72;5064956;28;20045;-96
2022/05/15 05:12:45;;;;;;;10.23;3.50;;;;;;;17.37;53.62;94193.41;5064803;28;20021;-94
2022/05/15 05:15:12;;;;;;;10.77;3.55;;;;;;;17.47;53.45;94180.53;5065266;28;20029;-96
2022/05/15 05:17:39;;;;;;;11.05;3.50;;;;;;;17.48;53.50;94187.47;5066806;28;20127;-95
2022/05/15 05:20:05;;;;;;;8.60;3.38;;;;;;;17.59;53.32;94185.84;5066643;28;20048;-94
2022/05/15 05:22:31;;;;;;;20.60;3.45;;;;;;;17.66;52.61;94186.00;5065087;28;20095;-93
2022/05/15 05:24:57;;;;;;;9.00;3.45;;;;;;;17.65;53.13;94193.31;5047237;28;20040;-94
2022/05/15 05:27:30;;;;;;;10.10;4.07;;;;;;;17.60;53.44;94182.00;5046639;28;20029;-95
2022/05/15 05:29:56;;;;;;;8.02;3.75;;;;;;;17.64;53.70;94178.25;5063817;28;20091;-94
2022/05/15 05:32:21;;;;;;;8.63;3.78;;;;;;;17.72;53.06;94184.59;5064255;28;20028;-90
2022/05/15 05:34:47;;;;;;;8.52;2.65;;;;;;;17.75;51.83;94172.34;5063246;28;20024;-88
2022/05/15 05:37:14;;;;;;;12.65;5.07;;;;;;;17.83;54.09;94180.28;5045367;28;20235;-89
2022/05/15 05:39:39;;;;;;;7.63;3.20;;;;;;;17.87;52.24;94185.75;5063412;28;20033;-89
2022/05/15 05:42:05;;;;;;;10.43;2.75;;;;;;;17.86;49.39;94178.00;5063435;28;20023;-90
2022/05/15 05:44:31;;;;;;;7.18;2.38;;;;;;;17.93;50.36;94191.63;5063484;28;20024;-89
2022/05/15 05:46:57;;;;;;;11.88;2.63;;;;;;;18.01;50.57;94177.16;5063391;28;20176;-88
2022/05/15 05:49:22;;;;;;;5.00;2.40;;;;;;;18.03;49.39;94183.00;5063386;28;20021;-88
2022/05/15 05:51:47;;;;;;;9.05;2.88;;;;;;;18.06;49.15;94176.91;5063193;28;20316;-87
2022/05/15 05:54:13;;;;;;;8.93;2.70;;;;;;;18.14;49.89;94177.84;5062876;28;20291;-88
2022/05/15 05:56:39;;;;;;;6.03;2.05;;;;;;;18.19;48.41;94175.63;5063044;28;20307;-89
2022/05/15 05:59:04;;;;;;;9.52;2.53;;;;;;;18.28;49.08;94186.25;5062492;28;20041;-88
2022/05/15 06:01:29;;;;;;;5.95;2.25;;;;;;;18.33;48.03;94182.47;5063541;28;20024;-89
2022/05/15 06:06:39;;;;;;;10.10;2.88;;;;;;;18.41;47.83;94181.50;5063738;28;20094;-90
2022/05/15 06:09:07;;;;;;;6.85;2.67;;;;;;;18.41;47.04;94186.88;5066179;28;20041;-92
2022/05/15 06:11:52;;;;;;;6.18;2.55;;;;;;;18.41;46.22;94194.97;5072628;28;20267;-92
2022/05/15 06:14:36;;;;;;;6.55;3.17;;;;;;;18.43;46.27;94174.59;5074201;28;20024;-92
2022/05/15 06:17:02;;;;;;;8.85;2.92;;;;;;;18.50;47.24;94178.56;5068944;28;20079;-90
2022/05/15 06:19:27;;;;;;;9.77;2.70;;;;;;;18.54;46.57;94176.72;5067793;28;20024;-92
2022/05/15 06:21:53;;;;;;;8.48;3.10;;;;;;;18.52;46.76;94171.69;5067376;28;20058;-89
2022/05/15 06:24:19;;;;;;;5.05;2.30;;;;;;;18.59;45.80;94171.81;5066598;28;20013;-90
2022/05/15 06:26:44;;;;;;;7.35;2.70;;;;;;;18.60;46.86;94194.19;5067312;28;20311;-88
2022/05/15 06:29:10;;;;;;;13.70;3.28;;;;;;;18.63;46.95;94194.28;5066901;28;20059;-90
2022/05/15 06:31:36;;;;;;;14.60;2.72;;;;;;;18.61;45.62;94196.53;5067123;28;20037;-85
2022/05/15 06:34:04;;;;;;;5.15;1.60;;;;;;;18.62;45.07;94186.53;5066422;28;20017;-77
2022/05/15 06:36:30;;;;;;;2.45;1.45;;;;;;;18.70;45.21;94193.63;5066066;28;20021;-77
2022/05/15 06:38:55;;;;;;;7.35;1.90;;;;;;;18.77;44.19;94199.19;5065966;28;20017;-77
2022/05/15 06:41:21;;;;;;;4.90;3.38;;;;;;;18.79;43.69;94201.56;5066146;28;20021;-79
2022/05/15 06:43:46;;;;;;;7.60;1.73;;;;;;;18.79;43.96;94196.16;5066073;28;20046;-84
2022/05/15 06:46:12;;;;;;;6.20;1.70;;;;;;;18.85;42.99;94200.13;5065831;28;20071;-80
2022/05/15 06:48:38;;;;;;;5.90;1.50;;;;;;;18.81;42.60;94196.56;5065668;28;20025;-79
2022/05/15 06:51:05;;;;;;;4.63;1.50;;;;;;;18.89;43.90;94190.16;5065623;28;20021;-80
2022/05/15 06:53:31;;;;;;;7.63;1.85;;;;;;;18.92;41.41;94194.84;5065886;28;20021;-80
2022/05/15 06:58:41;;;;;;;8.02;1.88;;;;;;;19.12;41.41;94197.53;5065775;28;20050;-81
2022/05/15 07:01:07;;;;;;;4.90;1.98;;;;;;;19.12;40.40;94202.94;5065158;28;20331;-82
2022/05/15 07:03:32;;;;;;;6.85;2.65;;;;;;;19.01;39.97;94194.59;5064478;28;20044;-82
2022/05/15 07:05:58;;;;;;;6.68;1.63;;;;;;;19.04;41.61;94191.97;5065543;28;20028;-82
2022/05/15 07:08:24;;;;;;;3.60;1.50;;;;;;;19.01;40.85;94192.72;5064963;28;20061;-81
2022/05/15 07:10:50;;;;;;;3.45;1.73;;;;;;;19.00;41.16;94196.53;5064746;28;20036;-82
2022/05/15 07:13:15;;;;;;;11.00;2.00;;;;;;;19.06;42.01;94193.56;5065420;28;20188;-82
2022/05/15 07:15:40;;;;;;;6.35;1.63;;;;;;;19.04;41.24;94186.56;5064677;28;20058;-82
2022/05/15 07:18:07;;;;;;;7.40;2.33;;;;;;;19.11;40.75;94196.75;5063756;28;20033;-81
2022/05/15 07:20:34;;;;;;;4.35;2.00;;;;;;;19.16;41.63;94198.38;5063982;28;20021;-82
2022/05/15 07:22:59;;;;;;;7.28;2.30;;;;;;;19.10;42.65;94205.97;5063746;28;20040;-82
2022/05/15 07:25:25;;;;;;;3.17;1.75;;;;;;;19.02;43.23;94221.28;5063786;28;20328;-81
2022/05/15 07:27:50;;;;;;;5.03;2.20;;;;;;;19.10;42.44;94202.50;5045658;28;20025;-81
2022/05/15 07:30:16;;;;;;;4.82;1.95;;;;;;;19.01;43.15;94197.31;5064068;28;20021;-81
2022/05/15 07:32:41;;;;;;;10.90;1.95;;;;;;;18.99;44.91;94199.59;5065063;28;20075;-82
2022/05/15 07:35:07;;;;;;;11.25;4.07;;;;;;;18.99;44.44;94203.09;5064744;28;20084;-82
2022/05/15 07:37:33;;;;;;;8.60;2.30;;;;;;;19.00;44.75;94211.97;5064929;28;20021;-81
2022/05/15 07:39:59;;;;;;;9.43;2.40;;;;;;;19.07;45.36;94200.50;5065046;28;20035;-81
2022/05/15 07:42:24;;;;;;;5.72;2.40;;;;;;;19.14;45.45;94193.31;5064704;28;20037;-81
2022/05/15 07:44:50;;;;;;;4.50;2.35;;;;;;;19.19;41.69;94195.75;5064581;28;20200;-82
2022/05/15 07:47:16;;;;;;;6.57;1.90;;;;;;;19.18;42.56;94204.97;5064454;28;20025;-80
2022/05/15 07:49:42;;;;;;;9.18;1.80;;;;;;;19.12;43.06;94202.94;5064551;28;20315;-81
2022/05/15 07:52:08;;;;;;;5.68;1.85;;;;;;;19.14;41.38;94206.06;5064689;28;20036;-80
2022/05/15 07:54:34;;;;;;;11.73;1.90;;;;;;;19.05;41.61;94198.19;5064551;28;20024;-81
2022/05/15 07:57:02;;;;;;;8.45;2.55;;;;;;;19.02;43.13;94201.59;5064461;28;20016;-81
2022/05/15 07:59:28;;;;;;;12.48;3.20;;;;;;;19.03;43.14;94203.13;5046853;28;20187;-80
2022/05/15 08:01:55;;;;;;;5.95;2.28;;;;;;;19.10;41.33;94203.28;5064625;28;20257;-78
2022/05/15 08:04:21;;;;;;;3.13;1.60;;;;;;;19.15;42.33;94210.31;5064494;28;20319;-79
2022/05/15 08:09:31;;;;;;;6.75;1.75;;;;;;;19.10;41.68;94205.97;5064492;28;20059;-79
2022/05/15 08:11:56;;;;;;;3.53;2.15;;;;;;;19.07;41.83;94203.22;5064262;28;20212;-79
2022/05/15 08:14:21;;;;;;;11.82;1.77;;;;;;;19.16;40.53;94209.19;5063627;28;20211;-79
2022/05/15 08:16:47;;;;;;;4.97;1.85;;;;;;;19.27;41.12;94223.66;5063312;28;20016;-79
2022/05/15 08:24:48;;;;;;;13.55;2.40;;;;;;;19.24;40.69;94237.88;5064498;28;20115;-80
2022/05/15 08:27:14;;;;;;;7.38;1.70;;;;;;;19.26;41.24;94232.91;5045854;28;20028;-80
2022/05/15 08:29:40;;;;;;;4.43;2.28;;;;;;;19.30;41.58;94235.69;5064162;28;20039;-81
2022/05/15 08:32:07;;;;;;;4.65;2.13;;;;;;;19.24;40.33;94232.47;5046309;28;20021;-79
2022/05/15 08:34:33;;;;;;;8.10;1.95;;;;;;;19.15;39.15;94232.72;5063971;28;20107;-81
2022/05/15 08:37:00;;;;;;;3.42;1.50;;;;;;;19.13;38.36;94228.78;5045999;28;20028;-81
2022/05/15 08:39:27;;;;;;;5.93;1.90;;;;;;;19.24;40.81;94235.19;5062997;28;20059;-81
2022/05/15 08:42:30;;;;;;;11.55;2.03;;;;;;;19.38;40.57;94230.03;5063667;28;20021;-81
2022/05/15 08:45:00;;;;;;;6.60;2.00;;;;;;;19.44;40.43;94228.59;5045924;28;20280;-81
2022/05/15 08:48:12;;;;;;;25.85;1.85;;;;;;;19.48;39.00;94230.56;5045794;28;20033;-81
2022/05/15 08:50:49;;;;;;;5.82;2.05;;;;;;;19.45;38.79;94226.66;4983204;28;20034;-81
2022/05/15 08:53:24;;;;;;;4.28;1.25;;;;;;;19.50;37.97;94236.38;5059352;28;20077;-81
2022/05/15 08:55:54;;;;;;;6.35;1.83;;;;;;;19.58;37.48;94238.06;5063606;28;20020;-80
2022/05/15 08:58:37;;;;;;;3.78;1.75;;;;;;;19.70;38.32;94220.88;5063406;28;20020;-81
2022/05/15 09:01:05;;;;;;;;;;;;;;;19.86;37.88;94237.00;5064063;28;20063;-80
2022/05/15 09:03:35;;;;;;;6.93;1.83;;;;;;;20.02;39.18;94230.31;5063535;28;19904;-80
2022/05/15 09:06:31;;;;;;;6.28;1.70;;;;;;;20.24;37.28;94233.34;5063487;28;20025;-79
2022/05/15 09:09:22;;;;;;;7.05;1.55;;;;;;;20.15;38.10;94230.91;5063013;28;20048;-81
2022/05/15 09:12:11;;;;;;;5.22;1.48;;;;;;;20.26;37.57;94225.63;5063006;28;20037;-80
2022/05/15 09:14:58;;;;;;;6.75;1.88;;;;;;;20.42;36.54;94222.75;5063213;28;20271;-80
2022/05/15 09:17:51;;;;;;;11.73;2.08;;;;;;;20.54;37.11;94219.03;5063192;28;20196;-81
2022/05/15 09:20:16;;;;;;;18.17;2.08;;;;;;;20.56;34.53;94222.94;5063205;28;20044;-83
2022/05/15 09:22:47;;;;;;;8.43;1.92;;;;;;;20.71;36.01;94223.91;5063183;28;20327;-80
2022/05/15 09:25:15;;;;;;;9.45;1.52;;;;;;;20.90;34.90;94222.19;5063021;28;20359;-81
2022/05/15 09:28:04;;;;;;;4.32;2.08;;;;;;;21.02;33.80;94220.03;5063109;28;20021;-81
2022/05/15 09:30:44;;;;;;;8.35;2.08;;;;;;;21.02;34.19;94208.41;5063310;28;20025;-82
2022/05/15 09:33:33;;;;;;;5.40;1.90;;;;;;;21.09;34.85;94210.41;5063032;28;20093;-80
2022/05/15 09:36:33;;;;;;;6.93;1.60;;;;;;;21.08;35.18;94215.03;5062731;28;20025;-83
2022/05/15 09:39:17;;;;;;;5.28;1.70;;;;;;;21.09;35.00;94211.19;5036907;28;20032;-80
2022/05/15 09:44:33;;;;;;;5.78;1.90;;;;;;;21.34;33.92;94216.84;5062577;28;20079;-80
2022/05/15 09:47:03;;;;;;;3.33;1.58;;;;;;;21.39;33.68;94211.09;5062591;28;20074;-80
2022/05/15 09:49:34;;;;;;;5.35;1.63;;;;;;;21.44;34.24;94210.78;5062900;28;20056;-80
2022/05/15 09:52:06;;;;;;;6.30;1.60;;;;;;;21.39;34.35;94219.25;5063181;28;20021;-79
2022/05/15 09:54:36;;;;;;;6.43;1.77;;;;;;;21.51;33.91;94204.63;5062747;28;20029;-81
2022/05/15 09:57:26;;;;;;;9.38;1.45;;;;;;;21.53;33.41;94207.75;5062865;28;20350;-82
2022/05/15 09:59:51;;;;;;;4.43;1.63;;;;;;;21.56;32.68;94204.31;5062538;28;20032;-80
2022/05/15 10:02:22;;;;;;;3.70;1.33;;;;;;;21.47;32.72;94208.47;5062419;28;20025;-82
2022/05/15 10:04:50;;;;;;;3.80;1.35;;;;;;;21.52;32.45;94200.00;5063043;28;20021;-83
2022/05/15 10:07:35;;;;;;;4.43;1.55;;;;;;;21.66;32.56;94215.59;5062622;28;20027;-82
2022/05/15 10:10:22;;;;;;;2.63;1.42;;;;;;;21.71;32.47;94193.56;5061544;28;20041;-82
2022/05/15 10:12:53;;;;;;;6.40;1.70;;;;;;;21.89;32.96;94215.41;5060265;28;20465;-83
2022/05/15 10:15:19;;;;;;;4.93;2.42;;;;;;;21.89;31.08;94218.13;5059799;28;20017;-82
2022/05/15 10:17:52;;;;;;;6.68;1.52;;;;;;;21.89;32.12;94215.41;5060804;28;20013;-84
2022/05/15 10:20:25;;;;;;;5.47;1.52;;;;;;;21.89;30.74;94210.00;5060683;28;20394;-83
2022/05/15 10:23:12;;;;;;;5.10;1.63;;;;;;;21.92;32.39;94206.50;5060777;28;20021;-82
2022/05/15 10:25:43;;;;;;;8.88;1.50;;;;;;;21.90;31.41;94203.41;5060631;28;20338;-83
2022/05/15 10:28:21;;;;;;;3.10;1.77;;;;;;;21.92;30.05;94204.59;5060652;28;20363;-82
2022/05/15 10:31:21;;;;;;;3.80;1.45;;;;;;;21.91;31.52;94189.47;5062129;28;20414;-82
2022/05/15 10:33:49;;;;;;;4.95;1.40;;;;;;;22.00;31.20;94208.13;5062400;28;20048;-83
2022/05/15 10:36:24;;;;;;;3.75;1.20;;;;;;;22.06;31.74;94197.69;5062311;28;20025;-82
2022/05/15 10:39:14;;;;;;;6.40;1.77;;;;;;;22.10;32.03;94207.41;5062195;28;20021;-82
2022/05/15 10:42:03;;;;;;;4.63;1.33;;;;;;;22.22;32.09;94198.19;5062210;28;20024;-83
2022/05/15 10:44:39;;;;;;;8.10;1.60;;;;;;;22.32;31.97;94196.72;5062104;28;20017;-82
2022/05/15 10:47:08;;;;;;;14.13;1.65;;;;;;;22.43;30.88;94197.56;5062361;28;20029;-82
2022/05/15 10:49:39;;;;;;;6.30;1.40;;;;;;;22.38;29.56;94197.91;5062491;28;20028;-82
2022/05/15 10:52:23;;;;;;;5.83;1.73;;;;;;;22.42;30.60;94196.00;5062250;28;20021;-83
2022/05/15 10:58:27;;;;;;;3.28;1.70;;;;;;;22.55;30.54;94202.69;5062263;28;20024;-82
2022/05/15 11:01:05;;;;;;;4.80;2.00;;;;;;;22.62;31.63;94194.53;5062159;28;20032;-82
2022/05/15 11:03:59;;;;;;;3.60;1.75;;;;;;;22.69;30.61;94204.66;5048095;28;20036;-82
2022/05/15 11:06:39;;;;;;;9.45;1.55;;;;;;;22.77;31.07;94203.53;5065639;28;20024;-82
2022/05/15 11:09:14;;;;;;;6.82;1.10;;;;;;;22.85;32.25;94185.31;5065470;28;20045;-82
2022/05/15 11:11:54;;;;;;;4.95;1.60;;;;;;;22.98;31.41;94189.25;5065574;28;20215;-82
2022/05/15 11:14:42;;;;;;;5.57;1.60;;;;;;;22.91;30.59;94193.88;5065700;28;20294;-82
2022/05/15 11:17:22;;;;;;;4.70;1.42;;;;;;;23.00;30.17;94189.66;5056999;28;20041;-82
2022/05/15 11:19:50;;;;;;;8.20;2.25;;;;;;;22.94;29.89;94190.38;5065497;28;20024;-83
2022/05/15 11:22:19;;;;;;;5.38;1.60;;;;;;;22.97;29.62;94184.97;5065224;28;20017;-83
2022/05/15 11:24:49;;;;;;;10.18;1.50;;;;;;;23.01;29.55;94193.94;5065305;28;20048;-83
2022/05/15 11:27:17;;;;;;;7.00;1.35;;;;;;;23.02;29.79;94183.84;5064996;28;20333;-83
2022/05/15 11:29:48;;;;;;;6.72;1.58;;;;;;;23.00;29.74;94180.72;5065076;28;20029;-83
2022/05/15 11:32:41;;;;;;;8.55;1.70;;;;;;;23.05;28.01;94174.16;5065310;28;20021;-82
2022/05/15 11:35:19;;;;;;;6.63;2.08;;;;;;;23.14;30.47;94174.53;5065419;28;20211;-82
2022/05/15 11:37:56;;;;;;;4.18;1.38;;;;;;;23.35;30.22;94168.38;5065149;28;20020;-82
2022/05/15 11:40:33;;;;;;;4.15;1.60;;;;;;;23.61;29.92;94159.84;5047449;28;20196;-83
2022/05/15 11:43:19;;;;;;;5.97;1.67;;;;;;;23.75;30.54;94174.59;5047218;28;20033;-82
2022/05/15 11:45:50;;;;;;;2.85;1.45;;;;;;;23.60;30.11;94162.94;5064838;28;20025;-82
2022/05/15 11:48:24;;;;;;;6.03;2.45;;;;;;;23.59;29.94;94154.00;5064983;28;20044;-82
2022/05/15 11:50:53;;;;;;;3.78;1.42;;;;;;;23.69;29.86;94163.34;5064875;28;20028;-82
2022/05/15 11:53:38;;;;;;;5.93;1.70;;;;;;;23.72;30.43;94167.22;5064725;28;20063;-83
2022/05/15 11:56:41;;;;;;;7.22;2.03;;;;;;;23.87;31.08;94168.00;5064768;28;20074;-82
2022/05/15 11:59:15;;;;;;;3.88;1.70;;;;;;;24.01;32.50;94162.53;5064818;28;20054;-83
2022/05/15 12:01:53;;;;;;;6.72;1.88;;;;;;;24.29;30.99;94150.03;5064778;28;20339;-82
2022/05/15 12:04:18;;;;;;;8.85;1.90;;;;;;;24.64;30.17;94146.44;5064666;28;20147;-83
2022/05/15 12:06:49;;;;;;;6.32;1.77;;;;;;;24.43;29.63;94148.03;5064415;28;20226;-83
2022/05/15 12:09:17;;;;;;;7.38;2.10;;;;;;;24.54;28.59;94148.03;5075395;28;20036;-83